sensor_id;sensor_type;location;lat;lon;timestamp;temperature;humidity
20740;DHT22;10530;49.968;19.844;2023-07-22T00:02:24;17.10;99.90
20740;DHT22;10530;49.968;19.844;2023-07-22T00:07:27;17.10;99.90
20740;DHT22;10530;49.968;19.844;2023-07-22T00:12:30;17.00;99.90
20740;DHT22;10530;49.968;19.844;2023-07-22T00:17:33;16.90;99.90
20740;DHT22;10530;49.968;19.844;2023-07-22T00:22:36;17.00;99.90
20740;DHT22;10530;49.968;19.844;2023-07-22T00:27:39;16.90;99.90
20740;DHT22;10530;49.968;19.844;2023-07-22T00:32:42;16.90;99.90
20740;DHT22;10530;49.968;19.844;2023-07-22T00:37:46;16.90;99.90
20740;DHT22;10530;49.968;19.844;2023-07-22T00:42:49;16.90;99.90
20740;DHT22;10530;49.968;19.844;2023-07-22T00:47:51;16.90;99.90
20740;DHT22;10530;49.968;19.844;2023-07-22T00:52:55;16.90;99.90
20740;DHT22;10530;49.968;19.844;2023-07-22T00:57:57;16.90;99.90
20740;DHT22;10530;49.968;19.844;2023-07-22T01:03:00;16.80;99.90
20740;DHT22;10530;49.968;19.844;2023-07-22T01:08:03;16.80;99.90
20740;DHT22;10530;49.968;19.844;2023-07-22T01:13:06;16.70;99.90
20740;DHT22;10530;49.968;19.844;2023-07-22T01:18:09;16.70;99.90
20740;DHT22;10530;49.968;19.844;2023-07-22T01:23:12;16.60;99.90
20740;DHT22;10530;49.968;19.844;2023-07-22T01:28:14;16.50;99.90
20740;DHT22;10530;49.968;19.844;2023-07-22T01:33:17;16.40;99.90
20740;DHT22;10530;49.968;19.844;2023-07-22T01:38:20;16.20;99.90
20740;DHT22;10530;49.968;19.844;2023-07-22T01:43:24;16.10;99.90
20740;DHT22;10530;49.968;19.844;2023-07-22T01:48:27;16.00;99.90
20740;DHT22;10530;49.968;19.844;2023-07-22T01:53:30;16.00;99.90
20740;DHT22;10530;49.968;19.844;2023-07-22T01:58:33;15.90;99.90
20740;DHT22;10530;49.968;19.844;2023-07-22T02:03:36;16.00;99.90
20740;DHT22;10530;49.968;19.844;2023-07-22T02:08:39;15.90;99.90
20740;DHT22;10530;49.968;19.844;2023-07-22T02:13:41;15.80;99.90
20740;DHT22;10530;49.968;19.844;2023-07-22T02:18:44;15.80;99.90
20740;DHT22;10530;49.968;19.844;2023-07-22T02:23:47;15.80;99.90
20740;DHT22;10530;49.968;19.844;2023-07-22T02:28:50;16.00;99.90
20740;DHT22;10530;49.968;19.844;2023-07-22T02:33:53;16.10;99.90
20740;DHT22;10530;49.968;19.844;2023-07-22T02:38:56;16.10;99.90
20740;DHT22;10530;49.968;19.844;2023-07-22T02:43:59;16.10;99.90
20740;DHT22;10530;49.968;19.844;2023-07-22T02:49:02;16.10;99.90
20740;DHT22;10530;49.968;19.844;2023-07-22T02:54:04;15.90;99.90
20740;DHT22;10530;49.968;19.844;2023-07-22T02:59:07;15.80;99.90
20740;DHT22;10530;49.968;19.844;2023-07-22T03:04:11;15.80;99.90
20740;DHT22;10530;49.968;19.844;2023-07-22T03:09:16;15.80;99.90
20740;DHT22;10530;49.968;19.844;2023-07-22T03:14:19;15.80;99.90
20740;DHT22;10530;49.968;19.844;2023-07-22T03:19:23;15.90;99.90
20740;DHT22;10530;49.968;19.844;2023-07-22T03:24:25;15.90;99.90
20740;DHT22;10530;49.968;19.844;2023-07-22T03:29:28;15.90;99.90
20740;DHT22;10530;49.968;19.844;2023-07-22T03:34:31;16.00;99.90
20740;DHT22;10530;49.968;19.844;2023-07-22T03:39:34;16.10;99.90
20740;DHT22;10530;49.968;19.844;2023-07-22T03:44:37;16.10;99.90
20740;DHT22;10530;49.968;19.844;2023-07-22T03:49:40;16.10;99.90
20740;DHT22;10530;49.968;19.844;2023-07-22T03:54:42;16.20;99.90
20740;DHT22;10530;49.968;19.844;2023-07-22T03:59:46;16.20;99.90
20740;DHT22;10530;49.968;19.844;2023-07-22T04:04:51;16.30;99.90
20740;DHT22;10530;49.968;19.844;2023-07-22T04:09:54;16.20;99.90
20740;DHT22;10530;49.968;19.844;2023-07-22T04:14:57;16.30;99.90
20740;DHT22;10530;49.968;19.844;2023-07-22T04:20:03;16.40;99.90
20740;DHT22;10530;49.968;19.844;2023-07-22T04:25:07;16.60;99.90
20740;DHT22;10530;49.968;19.844;2023-07-22T04:30:10;16.70;99.90
20740;DHT22;10530;49.968;19.844;2023-07-22T04:35:17;16.70;99.90
20740;DHT22;10530;49.968;19.844;2023-07-22T04:40:20;16.80;99.90
20740;DHT22;10530;49.968;19.844;2023-07-22T04:45:23;16.90;99.90
20740;DHT22;10530;49.968;19.844;2023-07-22T04:50:26;17.10;99.90
20740;DHT22;10530;49.968;19.844;2023-07-22T04:55:28;17.30;99.90
20740;DHT22;10530;49.968;19.844;2023-07-22T05:00:32;17.40;99.90
20740;DHT22;10530;49.968;19.844;2023-07-22T05:05:36;17.60;99.90
20740;DHT22;10530;49.968;19.844;2023-07-22T05:10:39;17.90;99.90
20740;DHT22;10530;49.968;19.844;2023-07-22T05:15:42;18.00;99.90
20740;DHT22;10530;49.968;19.844;2023-07-22T05:20:45;18.00;99.90
20740;DHT22;10530;49.968;19.844;2023-07-22T05:25:52;18.00;99.90
20740;DHT22;10530;49.968;19.844;2023-07-22T05:30:56;17.80;99.90
20740;DHT22;10530;49.968;19.844;2023-07-22T05:35:59;17.70;99.90
20740;DHT22;10530;49.968;19.844;2023-07-22T05:41:02;17.70;99.90
20740;DHT22;10530;49.968;19.844;2023-07-22T05:46:05;17.80;99.90
20740;DHT22;10530;49.968;19.844;2023-07-22T05:51:08;17.70;99.90
20740;DHT22;10530;49.968;19.844;2023-07-22T05:56:11;17.70;99.90
20740;DHT22;10530;49.968;19.844;2023-07-22T06:01:14;17.60;99.90
20740;DHT22;10530;49.968;19.844;2023-07-22T06:06:17;17.80;99.90
20740;DHT22;10530;49.968;19.844;2023-07-22T06:11:22;17.90;99.90
20740;DHT22;10530;49.968;19.844;2023-07-22T06:16:25;18.00;99.90
20740;DHT22;10530;49.968;19.844;2023-07-22T06:21:28;18.40;99.90
20740;DHT22;10530;49.968;19.844;2023-07-22T06:26:31;18.10;99.90
20740;DHT22;10530;49.968;19.844;2023-07-22T06:31:34;18.00;99.90
20740;DHT22;10530;49.968;19.844;2023-07-22T06:36:37;18.50;99.90
20740;DHT22;10530;49.968;19.844;2023-07-22T06:41:39;18.80;99.90
20740;DHT22;10530;49.968;19.844;2023-07-22T06:46:42;19.00;99.90
20740;DHT22;10530;49.968;19.844;2023-07-22T06:51:46;19.30;99.90
20740;DHT22;10530;49.968;19.844;2023-07-22T06:56:49;19.70;99.90
20740;DHT22;10530;49.968;19.844;2023-07-22T07:01:52;19.30;99.90
20740;DHT22;10530;49.968;19.844;2023-07-22T07:06:55;19.30;99.90
20740;DHT22;10530;49.968;19.844;2023-07-22T07:11:58;19.60;99.90
20740;DHT22;10530;49.968;19.844;2023-07-22T07:17:02;19.50;99.90
20740;DHT22;10530;49.968;19.844;2023-07-22T07:22:05;19.80;99.90
20740;DHT22;10530;49.968;19.844;2023-07-22T07:27:08;20.50;99.90
20740;DHT22;10530;49.968;19.844;2023-07-22T07:32:11;20.80;99.90
20740;DHT22;10530;49.968;19.844;2023-07-22T07:37:14;20.20;99.90
20740;DHT22;10530;49.968;19.844;2023-07-22T07:42:16;20.70;99.90
20740;DHT22;10530;49.968;19.844;2023-07-22T07:47:20;20.40;99.90
20740;DHT22;10530;49.968;19.844;2023-07-22T07:52:23;21.20;99.90
20740;DHT22;10530;49.968;19.844;2023-07-22T07:57:25;21.60;99.90
20740;DHT22;10530;49.968;19.844;2023-07-22T08:02:28;21.30;99.90
20740;DHT22;10530;49.968;19.844;2023-07-22T08:07:31;20.80;99.90
20740;DHT22;10530;49.968;19.844;2023-07-22T08:12:34;21.10;99.90
20740;DHT22;10530;49.968;19.844;2023-07-22T08:17:37;21.70;99.90
20740;DHT22;10530;49.968;19.844;2023-07-22T08:22:40;21.90;99.90
20740;DHT22;10530;49.968;19.844;2023-07-22T08:27:43;22.00;99.90
20740;DHT22;10530;49.968;19.844;2023-07-22T08:32:46;22.80;99.90
20740;DHT22;10530;49.968;19.844;2023-07-22T08:37:48;22.70;99.90
20740;DHT22;10530;49.968;19.844;2023-07-22T08:42:52;22.80;99.90
20740;DHT22;10530;49.968;19.844;2023-07-22T08:47:56;22.60;99.90
20740;DHT22;10530;49.968;19.844;2023-07-22T08:53:01;22.30;99.90
20740;DHT22;10530;49.968;19.844;2023-07-22T08:58:04;22.50;99.90
20740;DHT22;10530;49.968;19.844;2023-07-22T09:03:07;22.60;99.90
20740;DHT22;10530;49.968;19.844;2023-07-22T09:08:11;22.50;99.90
20740;DHT22;10530;49.968;19.844;2023-07-22T09:13:14;24.10;99.90
20740;DHT22;10530;49.968;19.844;2023-07-22T09:18:17;24.30;99.90
20740;DHT22;10530;49.968;19.844;2023-07-22T09:23:35;23.30;99.90
20740;DHT22;10530;49.968;19.844;2023-07-22T09:28:55;22.90;99.90
20740;DHT22;10530;49.968;19.844;2023-07-22T09:34:09;23.70;99.90
20740;DHT22;10530;49.968;19.844;2023-07-22T09:39:14;24.20;99.90
20740;DHT22;10530;49.968;19.844;2023-07-22T09:44:17;24.90;99.90
20740;DHT22;10530;49.968;19.844;2023-07-22T09:49:20;26.00;99.90
20740;DHT22;10530;49.968;19.844;2023-07-22T09:54:26;25.40;95.70
20740;DHT22;10530;49.968;19.844;2023-07-22T09:59:31;23.60;99.90
20740;DHT22;10530;49.968;19.844;2023-07-22T10:04:37;24.10;99.90
20740;DHT22;10530;49.968;19.844;2023-07-22T10:09:42;24.80;92.20
20740;DHT22;10530;49.968;19.844;2023-07-22T10:14:45;25.10;86.30
20740;DHT22;10530;49.968;19.844;2023-07-22T10:19:50;25.90;67.70
20740;DHT22;10530;49.968;19.844;2023-07-22T10:24:55;25.80;63.40
20740;DHT22;10530;49.968;19.844;2023-07-22T10:29:59;26.80;72.50
20740;DHT22;10530;49.968;19.844;2023-07-22T10:35:03;26.40;57.90
20740;DHT22;10530;49.968;19.844;2023-07-22T10:40:25;26.00;48.10
20740;DHT22;10530;49.968;19.844;2023-07-22T10:45:30;26.90;52.50
20740;DHT22;10530;49.968;19.844;2023-07-22T10:50:42;27.10;63.50
20740;DHT22;10530;49.968;19.844;2023-07-22T11:01:34;26.40;30.20
20740;DHT22;10530;49.968;19.844;2023-07-22T11:12:15;26.50;38.70
20740;DHT22;10530;49.968;19.844;2023-07-22T11:17:31;27.70;39.20
20740;DHT22;10530;49.968;19.844;2023-07-22T11:22:34;27.90;25.50
20740;DHT22;10530;49.968;19.844;2023-07-22T11:27:37;27.30;27.40
20740;DHT22;10530;49.968;19.844;2023-07-22T11:32:42;26.20;29.80
20740;DHT22;10530;49.968;19.844;2023-07-22T11:37:46;26.60;35.00
20740;DHT22;10530;49.968;19.844;2023-07-22T11:42:49;26.60;29.80
20740;DHT22;10530;49.968;19.844;2023-07-22T11:47:53;27.60;34.40
20740;DHT22;10530;49.968;19.844;2023-07-22T11:52:58;27.20;32.00
20740;DHT22;10530;49.968;19.844;2023-07-22T11:58:00;27.30;25.20
20740;DHT22;10530;49.968;19.844;2023-07-22T12:03:06;27.70;26.10
20740;DHT22;10530;49.968;19.844;2023-07-22T12:08:15;26.70;29.70
20740;DHT22;10530;49.968;19.844;2023-07-22T12:13:18;25.60;28.80
20740;DHT22;10530;49.968;19.844;2023-07-22T12:18:21;25.50;32.30
20740;DHT22;10530;49.968;19.844;2023-07-22T12:23:23;26.90;38.60
20740;DHT22;10530;49.968;19.844;2023-07-22T12:28:26;26.70;31.90
20740;DHT22;10530;49.968;19.844;2023-07-22T12:33:29;27.20;30.80
20740;DHT22;10530;49.968;19.844;2023-07-22T12:38:34;27.10;27.40
20740;DHT22;10530;49.968;19.844;2023-07-22T12:43:38;27.30;26.20
20740;DHT22;10530;49.968;19.844;2023-07-22T12:48:45;26.50;25.70
20740;DHT22;10530;49.968;19.844;2023-07-22T12:53:49;27.20;26.60
20740;DHT22;10530;49.968;19.844;2023-07-22T12:58:51;27.10;26.10
20740;DHT22;10530;49.968;19.844;2023-07-22T13:03:54;27.50;21.80
20740;DHT22;10530;49.968;19.844;2023-07-22T13:08:57;27.60;18.30
20740;DHT22;10530;49.968;19.844;2023-07-22T13:14:00;27.20;20.10
20740;DHT22;10530;49.968;19.844;2023-07-22T13:19:03;27.40;18.80
20740;DHT22;10530;49.968;19.844;2023-07-22T13:24:05;27.80;18.50
20740;DHT22;10530;49.968;19.844;2023-07-22T13:29:09;27.20;18.30
20740;DHT22;10530;49.968;19.844;2023-07-22T13:34:12;27.80;19.90
20740;DHT22;10530;49.968;19.844;2023-07-22T13:39:15;27.60;20.20
20740;DHT22;10530;49.968;19.844;2023-07-22T13:44:17;27.30;18.50
20740;DHT22;10530;49.968;19.844;2023-07-22T13:49:20;27.30;20.00
20740;DHT22;10530;49.968;19.844;2023-07-22T13:54:23;26.90;19.30
20740;DHT22;10530;49.968;19.844;2023-07-22T13:59:26;25.70;20.70
20740;DHT22;10530;49.968;19.844;2023-07-22T14:04:29;26.80;18.20
20740;DHT22;10530;49.968;19.844;2023-07-22T14:09:32;26.80;17.20
20740;DHT22;10530;49.968;19.844;2023-07-22T14:14:42;26.10;21.70
20740;DHT22;10530;49.968;19.844;2023-07-22T14:19:45;25.60;24.80
20740;DHT22;10530;49.968;19.844;2023-07-22T14:24:48;25.20;26.40
20740;DHT22;10530;49.968;19.844;2023-07-22T14:29:51;25.50;27.40
20740;DHT22;10530;49.968;19.844;2023-07-22T14:34:54;25.30;26.50
20740;DHT22;10530;49.968;19.844;2023-07-22T14:39:57;24.80;23.60
20740;DHT22;10530;49.968;19.844;2023-07-22T14:45:00;24.60;27.30
20740;DHT22;10530;49.968;19.844;2023-07-22T14:50:03;24.50;27.10
20740;DHT22;10530;49.968;19.844;2023-07-22T14:55:07;24.70;27.00
20740;DHT22;10530;49.968;19.844;2023-07-22T15:00:10;24.70;24.10
20740;DHT22;10530;49.968;19.844;2023-07-22T15:05:13;24.50;24.10
20740;DHT22;10530;49.968;19.844;2023-07-22T15:10:16;24.00;21.10
20740;DHT22;10530;49.968;19.844;2023-07-22T15:15:20;23.80;24.90
20740;DHT22;10530;49.968;19.844;2023-07-22T15:20:23;23.70;23.10
20740;DHT22;10530;49.968;19.844;2023-07-22T15:25:26;23.40;25.50
20740;DHT22;10530;49.968;19.844;2023-07-22T15:30:29;23.50;25.90
20740;DHT22;10530;49.968;19.844;2023-07-22T15:35:32;24.60;24.80
20740;DHT22;10530;49.968;19.844;2023-07-22T15:40:35;25.40;21.20
20740;DHT22;10530;49.968;19.844;2023-07-22T15:45:39;25.30;19.50
20740;DHT22;10530;49.968;19.844;2023-07-22T15:50:42;25.60;17.60
20740;DHT22;10530;49.968;19.844;2023-07-22T15:55:45;25.70;19.10
20740;DHT22;10530;49.968;19.844;2023-07-22T16:00:48;25.50;18.80
20740;DHT22;10530;49.968;19.844;2023-07-22T16:05:51;25.50;20.90
20740;DHT22;10530;49.968;19.844;2023-07-22T16:10:54;25.50;20.10
20740;DHT22;10530;49.968;19.844;2023-07-22T16:15:57;25.30;19.70
20740;DHT22;10530;49.968;19.844;2023-07-22T16:20:59;25.40;20.60
20740;DHT22;10530;49.968;19.844;2023-07-22T16:26:02;25.30;19.90
20740;DHT22;10530;49.968;19.844;2023-07-22T16:31:05;24.90;19.00
20740;DHT22;10530;49.968;19.844;2023-07-22T16:36:08;24.20;19.60
20740;DHT22;10530;49.968;19.844;2023-07-22T16:41:11;24.30;21.50
20740;DHT22;10530;49.968;19.844;2023-07-22T16:46:14;24.40;20.90
20740;DHT22;10530;49.968;19.844;2023-07-22T16:51:17;24.00;19.40
20740;DHT22;10530;49.968;19.844;2023-07-22T16:56:25;23.70;22.30
20740;DHT22;10530;49.968;19.844;2023-07-22T17:01:28;23.70;23.10
20740;DHT22;10530;49.968;19.844;2023-07-22T17:06:31;23.60;24.20
20740;DHT22;10530;49.968;19.844;2023-07-22T17:11:34;23.30;22.70
20740;DHT22;10530;49.968;19.844;2023-07-22T17:16:37;23.20;25.60
20740;DHT22;10530;49.968;19.844;2023-07-22T17:21:40;23.00;26.60
20740;DHT22;10530;49.968;19.844;2023-07-22T17:26:43;22.80;29.60
20740;DHT22;10530;49.968;19.844;2023-07-22T17:31:45;22.50;38.50
20740;DHT22;10530;49.968;19.844;2023-07-22T17:36:48;22.20;99.90
20740;DHT22;10530;49.968;19.844;2023-07-22T17:41:51;21.70;99.90
20740;DHT22;10530;49.968;19.844;2023-07-22T17:46:54;21.00;99.90
20740;DHT22;10530;49.968;19.844;2023-07-22T17:51:57;20.80;99.90
20740;DHT22;10530;49.968;19.844;2023-07-22T17:57:00;20.40;99.90
20740;DHT22;10530;49.968;19.844;2023-07-22T18:02:04;20.10;99.90
20740;DHT22;10530;49.968;19.844;2023-07-22T18:07:08;19.90;99.90
20740;DHT22;10530;49.968;19.844;2023-07-22T18:12:11;19.60;99.90
20740;DHT22;10530;49.968;19.844;2023-07-22T18:17:16;19.40;99.90
20740;DHT22;10530;49.968;19.844;2023-07-22T18:22:19;19.20;99.90
20740;DHT22;10530;49.968;19.844;2023-07-22T18:27:22;19.10;99.90
20740;DHT22;10530;49.968;19.844;2023-07-22T18:32:26;19.00;99.90
20740;DHT22;10530;49.968;19.844;2023-07-22T18:37:32;19.00;99.90
20740;DHT22;10530;49.968;19.844;2023-07-22T18:42:37;18.90;99.90
20740;DHT22;10530;49.968;19.844;2023-07-22T18:47:40;18.90;99.90
20740;DHT22;10530;49.968;19.844;2023-07-22T18:52:43;18.80;99.90
20740;DHT22;10530;49.968;19.844;2023-07-22T18:57:46;18.70;99.90
20740;DHT22;10530;49.968;19.844;2023-07-22T19:02:50;18.60;99.90
20740;DHT22;10530;49.968;19.844;2023-07-22T19:07:53;18.60;99.90
20740;DHT22;10530;49.968;19.844;2023-07-22T19:12:56;18.60;99.90
20740;DHT22;10530;49.968;19.844;2023-07-22T19:17:58;18.50;99.90
20740;DHT22;10530;49.968;19.844;2023-07-22T19:23:02;18.40;99.90
20740;DHT22;10530;49.968;19.844;2023-07-22T19:28:08;18.10;99.90
20740;DHT22;10530;49.968;19.844;2023-07-22T19:33:11;17.80;99.90
20740;DHT22;10530;49.968;19.844;2023-07-22T19:38:14;17.60;99.90
20740;DHT22;10530;49.968;19.844;2023-07-22T19:43:16;17.30;99.90
20740;DHT22;10530;49.968;19.844;2023-07-22T19:48:20;17.10;99.90
20740;DHT22;10530;49.968;19.844;2023-07-22T19:53:22;16.90;99.90
20740;DHT22;10530;49.968;19.844;2023-07-22T19:58:25;16.90;99.90
20740;DHT22;10530;49.968;19.844;2023-07-22T20:03:29;16.70;99.90
20740;DHT22;10530;49.968;19.844;2023-07-22T20:08:32;16.60;99.90
20740;DHT22;10530;49.968;19.844;2023-07-22T20:13:36;16.50;99.90
20740;DHT22;10530;49.968;19.844;2023-07-22T20:18:39;16.20;99.90
20740;DHT22;10530;49.968;19.844;2023-07-22T20:23:41;16.10;99.90
20740;DHT22;10530;49.968;19.844;2023-07-22T20:28:47;16.00;99.90
20740;DHT22;10530;49.968;19.844;2023-07-22T20:33:49;15.90;99.90
20740;DHT22;10530;49.968;19.844;2023-07-22T20:38:52;15.70;99.90
20740;DHT22;10530;49.968;19.844;2023-07-22T20:43:55;15.60;99.90
20740;DHT22;10530;49.968;19.844;2023-07-22T20:48:58;15.50;99.90
20740;DHT22;10530;49.968;19.844;2023-07-22T20:54:01;15.30;99.90
20740;DHT22;10530;49.968;19.844;2023-07-22T20:59:06;15.20;99.90
20740;DHT22;10530;49.968;19.844;2023-07-22T21:04:09;15.20;99.90
20740;DHT22;10530;49.968;19.844;2023-07-22T21:09:12;15.20;99.90
20740;DHT22;10530;49.968;19.844;2023-07-22T21:14:15;15.10;99.90
20740;DHT22;10530;49.968;19.844;2023-07-22T21:19:19;15.00;99.90
20740;DHT22;10530;49.968;19.844;2023-07-22T21:24:22;15.00;99.90
20740;DHT22;10530;49.968;19.844;2023-07-22T21:29:25;15.00;99.90
20740;DHT22;10530;49.968;19.844;2023-07-22T21:34:30;15.00;99.90
20740;DHT22;10530;49.968;19.844;2023-07-22T21:39:33;14.90;99.90
20740;DHT22;10530;49.968;19.844;2023-07-22T21:44:36;14.90;99.90
20740;DHT22;10530;49.968;19.844;2023-07-22T21:49:38;14.70;99.90
20740;DHT22;10530;49.968;19.844;2023-07-22T21:54:41;14.60;99.90
20740;DHT22;10530;49.968;19.844;2023-07-22T21:59:44;14.70;99.90
20740;DHT22;10530;49.968;19.844;2023-07-22T22:04:47;14.50;99.90
20740;DHT22;10530;49.968;19.844;2023-07-22T22:09:54;14.40;99.90
20740;DHT22;10530;49.968;19.844;2023-07-22T22:14:57;14.50;99.90
20740;DHT22;10530;49.968;19.844;2023-07-22T22:20:00;14.30;99.90
20740;DHT22;10530;49.968;19.844;2023-07-22T22:25:04;14.30;99.90
20740;DHT22;10530;49.968;19.844;2023-07-22T22:30:07;14.20;99.90
20740;DHT22;10530;49.968;19.844;2023-07-22T22:35:11;14.20;99.90
20740;DHT22;10530;49.968;19.844;2023-07-22T22:40:13;14.10;99.90
20740;DHT22;10530;49.968;19.844;2023-07-22T22:45:16;14.10;99.90
20740;DHT22;10530;49.968;19.844;2023-07-22T22:50:19;13.80;99.90
20740;DHT22;10530;49.968;19.844;2023-07-22T22:55:22;13.80;99.90
20740;DHT22;10530;49.968;19.844;2023-07-22T23:00:25;13.90;99.90
20740;DHT22;10530;49.968;19.844;2023-07-22T23:05:30;13.70;99.90
20740;DHT22;10530;49.968;19.844;2023-07-22T23:10:32;13.70;99.90
20740;DHT22;10530;49.968;19.844;2023-07-22T23:15:35;13.50;99.90
20740;DHT22;10530;49.968;19.844;2023-07-22T23:20:38;13.50;99.90
20740;DHT22;10530;49.968;19.844;2023-07-22T23:25:41;13.40;99.90
20740;DHT22;10530;49.968;19.844;2023-07-22T23:30:44;13.50;99.90
20740;DHT22;10530;49.968;19.844;2023-07-22T23:35:52;13.30;99.90
20740;DHT22;10530;49.968;19.844;2023-07-22T23:40:55;13.30;99.90
20740;DHT22;10530;49.968;19.844;2023-07-22T23:45:58;13.10;99.90
20740;DHT22;10530;49.968;19.844;2023-07-22T23:51:01;13.00;99.90
20740;DHT22;10530;49.968;19.844;2023-07-22T23:56:04;12.90;99.90
